Time;durP1;ratioP1;P1;durP2;ratioP2;P2;SDS_P1;SDS_P2;PMS_P1;PMS_P2;Temp;Humidity;BMP_temperature;BMP_pressure;BME280_temperature;BME280_humidity;BME280_pressure;Samples;Min_cycle;Max_cycle;Signal;HPM_P1;HPM_P2
2023/02/18 00:02:20;;;;;;;;;;;13.10;89.10;;;12.00;75.37;101166.72;5014831;28;20199;-75
2023/02/18 00:04:47;;;;;;;;;;;13.20;89.30;;;12.02;75.37;101163.88;5008473;28;19926;-75
2023/02/18 00:07:14;;;;;;;;;;;13.20;89.20;;;11.95;75.66;101169.19;5018362;28;19925;-76
2023/02/18 00:09:41;;;;;;;;;;;13.10;89.30;;;11.96;75.97;101170.03;5004988;28;19933;-76
2023/02/18 00:12:08;;;;;;;;;;;13.10;89.50;;;11.98;75.83;101174.16;5001363;28;19933;-76
2023/02/18 00:14:35;;;;;;;;;;;13.20;89.50;;;11.95;76.17;101165.69;5013907;28;19931;-76
2023/02/18 00:17:03;;;;;;;;;;;13.10;89.80;;;11.97;76.04;101174.34;5016100;28;19925;-76
2023/02/18 00:19:30;;;;;;;;;;;13.10;89.80;;;11.90;76.31;101173.50;5010815;28;19926;-76
2023/02/18 00:21:57;;;;;;;;;;;13.10;89.80;;;11.91;76.66;101167.13;5007579;28;19925;-76
2023/02/18 00:24:24;;;;;;;;;;;13.10;90.00;;;11.90;76.39;101162.81;5005327;28;19932;-76
2023/02/18 00:26:52;;;;;;;;;;;13.10;89.80;;;11.91;76.72;101153.75;5007782;28;19933;-76
2023/02/18 00:29:19;;;;;;;;;;;13.10;89.80;;;11.95;76.54;101161.16;5021467;28;20608;-76
2023/02/18 00:31:46;;;;;;;;;;;13.10;90.00;;;11.96;76.24;101148.66;5019191;28;19936;-76
2023/02/18 00:34:14;;;;;;;;;;;13.20;89.80;;;11.97;76.33;101139.59;5023980;28;19933;-76
2023/02/18 00:36:42;;;;;;;;;;;13.10;89.90;;;11.99;75.86;101134.88;5010651;28;19929;-76
2023/02/18 00:39:10;;;;;;;;;;;13.10;89.70;;;12.01;76.23;101132.81;5020076;28;20028;-76
2023/02/18 00:41:37;;;;;;;;;;;13.20;89.70;;;12.00;76.08;101133.84;5010695;28;19929;-76
2023/02/18 00:44:04;;;;;;;;;;;13.10;89.70;;;11.95;76.29;101136.28;5010051;28;19929;-76
2023/02/18 00:46:31;;;;;;;;;;;13.10;89.70;;;11.94;76.31;101131.97;5030951;28;19934;-76
2023/02/18 00:49:01;;;;;;;;;;;13.10;90.00;;;11.97;76.49;101135.06;5018369;28;19938;-75
2023/02/18 00:51:29;;;;;;;;;;;13.10;90.20;;;12.01;76.51;101138.19;5009084;28;20028;-76
2023/02/18 00:53:58;;;;;;;;;;;13.10;90.10;;;12.02;76.53;101137.13;5008077;28;19925;-76
2023/02/18 00:56:25;;;;;;;;;;;13.10;90.20;;;12.00;76.43;101125.81;5010201;28;19932;-76
2023/02/18 00:58:53;;;;;;;;;;;13.10;90.20;;;11.97;76.91;101119.03;5012423;28;19933;-76
2023/02/18 01:01:20;;;;;;;;;;;13.10;90.40;;;11.98;77.03;101119.84;5006265;28;19926;-76
2023/02/18 01:03:47;;;;;;;;;;;13.10;90.60;;;11.97;77.28;101115.53;4995298;28;19936;-76
2023/02/18 01:06:14;;;;;;;;;;;13.10;90.60;;;12.00;76.95;101105.25;5026819;28;20424;-75
2023/02/18 01:08:43;;;;;;;;;;;13.10;90.30;;;12.00;77.08;101102.56;5028463;28;20302;-76
2023/02/18 01:11:12;;;;;;;;;;;13.10;90.40;;;11.99;77.18;101100.94;5008088;28;19925;-75
2023/02/18 01:13:40;;;;;;;;;;;13.10;90.60;;;11.99;77.30;101102.78;5036230;28;20447;-76
2023/02/18 01:16:07;;;;;;;;;;;13.20;90.80;;;11.96;77.39;101106.72;5022002;28;19929;-76
2023/02/18 01:18:35;;;;;;;;;;;13.10;91.00;;;11.99;77.46;101102.78;5011948;28;19952;-76
2023/02/18 01:21:07;;;;;;;;;;;13.10;90.80;;;11.97;77.51;101096.84;5013034;28;19929;-75
2023/02/18 01:23:36;;;;;;;;;;;13.10;91.00;;;11.91;77.54;101105.66;5011967;28;19937;-76
2023/02/18 01:26:04;;;;;;;;;;;13.00;90.90;;;11.91;77.87;101106.50;5005762;28;19925;-76
2023/02/18 01:28:33;;;;;;;;;;;13.00;91.00;;;11.88;77.91;101106.06;5020809;28;19933;-76
2023/02/18 01:31:06;;;;;;;;;;;13.00;91.10;;;11.88;77.84;101104.22;5010780;28;20015;-76
2023/02/18 01:33:33;;;;;;;;;;;13.00;91.00;;;11.88;77.62;101098.88;5018091;28;19933;-76
2023/02/18 01:36:01;;;;;;;;;;;13.00;90.80;;;11.90;77.56;101096.81;5000639;28;20473;-76
2023/02/18 01:38:28;;;;;;;;;;;13.00;90.70;;;11.93;77.41;101090.25;5026572;28;19926;-76
2023/02/18 01:40:55;;;;;;;;;;;13.10;90.80;;;11.95;77.19;101093.53;5009632;28;19940;-76
2023/02/18 01:43:23;;;;;;;;;;;13.10;90.60;;;11.84;77.86;101085.09;5018742;28;19971;-76
2023/02/18 01:46:13;;;;;;;;;;;13.10;90.60;;;11.83;78.05;101082.63;5011782;28;19926;-76
2023/02/18 01:48:43;;;;;;;;;;;13.00;90.80;;;11.88;77.54;101080.16;5051741;23;19925;-76
2023/02/18 01:51:13;;;;;;;;;;;13.00;90.60;;;11.87;77.68;101075.03;5029736;28;19936;-76
2023/02/18 01:53:46;;;;;;;;;;;13.00;90.80;;;11.84;77.54;101077.06;5027573;28;19976;-77
2023/02/18 01:56:19;;;;;;;;;;;13.00;90.70;;;11.84;77.78;101071.72;5035959;28;19962;-76
2023/02/18 01:58:49;;;;;;;;;;;13.00;90.80;;;11.79;77.92;101070.66;5020962;28;19964;-77
2023/02/18 02:01:16;;;;;;;;;;;13.00;90.80;;;11.67;78.27;101074.97;5014964;28;19933;-76
2023/02/18 02:03:43;;;;;;;;;;;13.00;90.90;;;11.67;78.61;101070.47;5031039;28;19935;-76
2023/02/18 02:06:16;;;;;;;;;;;12.90;91.00;;;11.69;78.31;101071.06;5020594;28;20019;-76
2023/02/18 02:08:44;;;;;;;;;;;13.00;91.00;;;11.75;78.04;101064.06;5029426;28;19932;-76
2023/02/18 02:11:22;;;;;;;;;;;12.90;91.00;;;11.78;77.82;101063.69;5033877;28;20522;-76
2023/02/18 02:14:11;;;;;;;;;;;13.00;90.90;;;11.79;77.72;101062.66;5030833;28;20389;-76
2023/02/18 02:16:42;;;;;;;;;;;13.00;90.80;;;11.81;77.30;101057.94;5010676;28;19936;-76
2023/02/18 02:19:35;;;;;;;;;;;13.00;90.80;;;11.80;77.26;101059.75;5012304;28;20306;-76
2023/02/18 02:22:45;;;;;;;;;;;13.00;90.70;;;11.84;77.24;101047.66;5030786;28;19960;-76
2023/02/18 02:25:19;;;;;;;;;;;12.90;90.70;;;11.85;76.85;101045.81;4923735;29;19934;-77
2023/02/18 02:28:32;;;;;;;;;;;13.00;90.50;;;11.80;77.12;101054.41;5005557;28;19929;-76
2023/02/18 02:31:24;;;;;;;;;;;13.00;90.60;;;11.71;77.39;101044.13;5035777;28;19931;-76
2023/02/18 02:34:28;;;;;;;;;;;12.90;90.80;;;11.76;77.14;101039.00;5033210;28;19925;-76
2023/02/18 02:36:58;;;;;;;;;;;12.90;90.80;;;11.75;77.11;101024.81;5030525;28;19930;-76
2023/02/18 02:39:30;;;;;;;;;;;12.90;90.70;;;11.74;77.30;101041.06;5030080;28;20377;-76
2023/02/18 02:42:03;;;;;;;;;;;12.90;90.80;;;11.71;77.33;101034.28;5029240;28;20622;-76
2023/02/18 02:44:34;;;;;;;;;;;12.90;90.80;;;11.69;77.33;101036.34;5026328;28;20010;-76
2023/02/18 02:47:07;;;;;;;;;;;12.80;90.70;;;11.71;77.39;101026.28;5028401;28;19925;-76
2023/02/18 02:49:44;;;;;;;;;;;12.80;90.80;;;11.68;77.40;101031.19;5028889;28;19925;-76
2023/02/18 02:52:17;;;;;;;;;;;12.80;90.90;;;11.66;77.72;101028.72;5029630;28;19925;-76
2023/02/18 02:54:44;;;;;;;;;;;12.80;91.00;;;11.68;77.63;101034.69;5028245;28;19931;-76
2023/02/18 02:57:42;;;;;;;;;;;12.80;91.00;;;11.71;77.57;101020.94;5022682;28;20393;-76
2023/02/18 03:00:16;;;;;;;;;;;12.90;91.10;;;11.73;77.77;101026.06;5030046;28;19926;-76
2023/02/18 03:02:58;;;;;;;;;;;12.90;91.00;;;11.72;77.66;101024.44;5028616;28;20328;-76
2023/02/18 03:05:33;;;;;;;;;;;12.90;91.10;;;11.73;77.53;101016.19;5035617;28;19936;-76
2023/02/18 03:08:20;;;;;;;;;;;12.90;91.20;;;11.74;77.70;101017.00;5027094;28;19929;-77
2023/02/18 03:10:55;;;;;;;;;;;12.90;91.20;;;11.74;78.22;101017.00;5030019;28;19929;-76
2023/02/18 03:13:31;;;;;;;;;;;12.90;91.50;;;11.73;78.86;100999.34;5020214;28;21556;-76
2023/02/18 03:16:05;;;;;;;;;;;12.90;91.90;;;11.77;78.62;100990.72;5039137;28;20583;-76
2023/02/18 03:18:37;;;;;;;;;;;12.90;91.70;;;11.79;78.80;100969.94;5029804;28;20215;-77
2023/02/18 03:21:09;;;;;;;;;;;12.90;91.80;;;11.76;79.02;100982.88;5028694;28;19925;-76
2023/02/18 03:23:39;;;;;;;;;;;12.90;92.00;;;11.75;79.16;100971.38;5016613;28;19932;-76
2023/02/18 03:26:08;;;;;;;;;;;13.00;92.20;;;11.74;79.24;100979.59;5034131;28;19926;-76
2023/02/18 03:28:36;;;;;;;;;;;12.90;92.00;;;11.78;79.22;100972.81;5025784;28;20393;-76
2023/02/18 03:31:08;;;;;;;;;;;12.90;92.20;;;11.78;79.38;100962.13;5028443;28;19929;-76
2023/02/18 03:33:38;;;;;;;;;;;12.90;92.20;;;11.76;79.80;100967.69;5026348;28;19929;-76
2023/02/18 03:36:07;;;;;;;;;;;12.90;92.60;;;11.73;79.80;100961.94;5026807;28;19957;-75
2023/02/18 03:38:40;;;;;;;;;;;12.90;92.60;;;11.76;79.72;100962.34;5031456;28;20016;-77
2023/02/18 03:41:07;;;;;;;;;;;12.90;92.60;;;11.75;80.06;100954.53;5031740;28;20317;-77
2023/02/18 03:43:35;;;;;;;;;;;13.00;92.80;;;11.77;79.71;100955.16;5019419;28;19932;-76
2023/02/18 03:46:03;;;;;;;;;;;12.90;92.60;;;11.75;80.06;100949.19;5014312;28;19937;-76
2023/02/18 03:48:30;;;;;;;;;;;12.90;92.90;;;11.75;80.18;100950.00;5025550;28;20336;-77
2023/02/18 03:50:57;;;;;;;;;;;12.90;92.90;;;11.77;79.99;100953.31;5028087;28;19932;-76
2023/02/18 03:53:25;;;;;;;;;;;12.90;92.90;;;11.70;80.27;100939.09;5023430;28;19937;-76
2023/02/18 03:55:52;;;;;;;;;;;12.80;93.00;;;11.71;80.35;100943.44;5031731;28;20320;-76
2023/02/18 03:58:19;;;;;;;;;;;12.80;92.80;;;11.68;80.94;100954.53;5037382;28;20575;-76
2023/02/18 04:00:46;;;;;;;;;;;12.80;93.20;;;11.68;80.86;100943.84;5029188;28;19952;-76
2023/02/18 04:03:13;;;;;;;;;;;12.80;93.20;;;11.69;80.46;100934.78;5030314;28;19936;-76
2023/02/18 04:05:40;;;;;;;;;;;12.80;93.00;;;11.63;81.00;100934.81;5023833;28;19926;-77
2023/02/18 04:08:07;;;;;;;;;;;12.80;93.30;;;11.64;81.12;100917.75;5029509;28;19925;-76
2023/02/18 04:10:35;;;;;;;;;;;12.80;93.40;;;11.69;81.01;100933.97;5029690;28;19928;-77
2023/02/18 04:13:02;;;;;;;;;;;12.80;93.40;;;11.72;80.75;100926.38;5044577;28;19928;-76
2023/02/18 04:15:30;;;;;;;;;;;12.90;93.20;;;11.73;80.55;100928.00;5041234;28;19982;-77
2023/02/18 04:17:56;;;;;;;;;;;12.80;93.20;;;11.74;80.58;100916.28;5021348;28;20041;-76
2023/02/18 04:20:24;;;;;;;;;;;12.90;93.20;;;11.78;80.24;100914.84;5023167;28;19929;-76
2023/02/18 04:22:50;;;;;;;;;;;12.90;93.00;;;11.73;80.53;100919.19;5031528;28;19932;-76
2023/02/18 04:25:18;;;;;;;;;;;12.90;93.00;;;11.70;80.71;100920.41;5029886;28;20298;-77
2023/02/18 04:27:46;;;;;;;;;;;12.90;93.20;;;11.72;80.91;100912.19;5034599;28;19925;-76
2023/02/18 04:30:13;;;;;;;;;;;12.90;93.20;;;11.71;80.65;100906.03;5044775;28;20243;-76
2023/02/18 04:32:40;;;;;;;;;;;12.90;93.10;;;11.73;80.67;100905.81;5053097;28;19940;-76
2023/02/18 04:35:08;;;;;;;;;;;12.90;93.10;;;11.73;80.70;100895.13;5032980;28;20299;-76
2023/02/18 04:37:35;;;;;;;;;;;12.90;93.10;;;11.66;80.99;100900.47;5032437;28;20282;-76
2023/02/18 04:40:02;;;;;;;;;;;12.90;93.30;;;11.66;80.90;100891.63;5032643;28;19955;-76
2023/02/18 04:42:28;;;;;;;;;;;12.80;93.20;;;11.69;81.11;100886.69;5029217;28;19929;-76
2023/02/18 04:44:57;;;;;;;;;;;12.80;93.30;;;11.73;80.81;100887.13;5037663;28;19999;-76
2023/02/18 04:47:24;;;;;;;;;;;12.90;93.20;;;11.70;80.91;100874.97;5049242;28;19929;-76
2023/02/18 04:49:51;;;;;;;;;;;12.80;93.30;;;11.71;80.90;100878.47;5028224;28;19940;-76
2023/02/18 04:52:18;;;;;;;;;;;12.90;93.60;;;11.64;81.32;100883.84;5013008;28;19925;-76
2023/02/18 04:54:45;;;;;;;;;;;12.80;93.60;;;11.62;81.72;100879.75;5026061;28;19936;-76
2023/02/18 04:57:12;;;;;;;;;;;12.80;93.80;;;11.63;81.35;100878.72;5026844;28;19929;-76
2023/02/18 04:59:39;;;;;;;;;;;12.80;93.60;;;11.62;81.55;100875.22;5031033;28;19933;-77
2023/02/18 05:02:08;;;;;;;;;;;12.80;93.60;;;11.58;82.00;100874.00;5040195;28;19982;-77
2023/02/18 05:04:35;;;;;;;;;;;12.80;93.90;;;11.60;82.04;100862.03;5041155;28;19936;-76
2023/02/18 05:07:02;;;;;;;;;;;12.70;94.00;;;11.60;82.03;100855.88;5031642;28;19929;-77
2023/02/18 05:09:29;;;;;;;;;;;12.80;94.00;;;11.55;82.13;100861.84;5025299;28;19925;-76
2023/02/18 05:11:56;;;;;;;;;;;12.70;94.20;;;11.58;82.35;100852.63;5018324;28;19929;-77
2023/02/18 05:14:23;;;;;;;;;;;12.70;94.20;;;11.57;81.87;100856.31;5028733;28;19933;-76
2023/02/18 05:16:49;;;;;;;;;;;12.70;94.10;;;11.56;81.96;100858.16;5029558;28;19929;-76
2023/02/18 05:19:18;;;;;;;;;;;12.70;94.20;;;11.57;81.99;100857.13;5043201;28;19929;-76
2023/02/18 05:21:45;;;;;;;;;;;12.70;94.20;;;11.51;82.35;100847.25;5052018;28;20415;-76
2023/02/18 05:24:12;;;;;;;;;;;12.60;94.20;;;11.53;82.54;100849.75;5028737;28;19961;-76
2023/02/18 05:26:39;;;;;;;;;;;12.80;94.50;;;11.47;82.46;100834.56;5028356;28;19932;-76
2023/02/18 05:29:06;;;;;;;;;;;12.70;94.40;;;11.43;82.67;100826.13;5029944;28;19932;-76
2023/02/18 05:31:32;;;;;;;;;;;12.60;94.40;;;11.43;82.77;100833.34;5026421;28;19972;-77
2023/02/18 05:33:59;;;;;;;;;;;12.60;94.60;;;11.43;82.63;100823.47;5029928;28;19928;-76
2023/02/18 05:36:28;;;;;;;;;;;12.60;94.50;;;11.40;82.86;100828.38;5037674;28;19932;-76
2023/02/18 05:38:55;;;;;;;;;;;12.60;94.50;;;11.42;83.09;100815.63;5026695;28;19934;-76
2023/02/18 05:41:22;;;;;;;;;;;12.60;94.60;;;11.43;83.01;100814.63;5030536;28;19931;-76
2023/02/18 05:46:33;;;;;;;;;;;12.60;94.50;;;11.45;82.73;100809.91;5028738;28;19929;-76
2023/02/18 05:49:00;;;;;;;;;;;12.60;94.50;;;11.46;82.49;100803.53;5028676;28;19936;-77
2023/02/18 05:51:28;;;;;;;;;;;12.60;94.40;;;11.44;82.39;100800.25;5031130;28;19968;-76
2023/02/18 05:53:55;;;;;;;;;;;12.60;94.40;;;11.44;82.45;100800.25;5031490;28;19987;-76
2023/02/18 05:56:22;;;;;;;;;;;12.70;94.60;;;11.44;82.51;100797.56;5030691;28;19929;-78
2023/02/18 05:58:49;;;;;;;;;;;12.60;94.50;;;11.43;82.40;100790.59;5030148;28;19932;-79
2023/02/18 06:01:16;;;;;;;;;;;12.60;94.50;;;11.42;82.51;100794.28;5030565;28;19929;-78
2023/02/18 06:03:43;;;;;;;;;;;12.50;94.60;;;11.37;82.59;100788.75;5030623;28;19929;-78
2023/02/18 06:06:10;;;;;;;;;;;12.50;94.60;;;11.38;82.65;100785.06;5025688;28;19933;-78
2023/02/18 06:08:39;;;;;;;;;;;12.50;94.60;;;11.38;82.80;100796.56;5034355;28;20683;-78
2023/02/18 06:11:05;;;;;;;;;;;12.50;94.70;;;11.35;82.94;100784.44;5041141;28;19929;-78
2023/02/18 06:13:32;;;;;;;;;;;12.50;94.80;;;11.30;83.04;100791.44;5031028;28;20562;-78
2023/02/18 06:15:59;;;;;;;;;;;12.40;94.90;;;11.25;83.36;100793.91;5023324;28;19925;-78
2023/02/18 06:18:26;;;;;;;;;;;12.40;95.00;;;11.22;83.73;100791.63;5042689;28;20344;-78
2023/02/18 06:20:53;;;;;;;;;;;12.60;95.20;;;11.18;83.75;100796.59;5038541;28;19940;-79
2023/02/18 06:23:20;;;;;;;;;;;12.40;95.20;;;11.26;83.80;100790.19;5020561;28;19929;-78
2023/02/18 06:25:49;;;;;;;;;;;12.40;95.10;;;11.26;83.68;100783.00;5033875;28;19967;-79
2023/02/18 06:28:17;;;;;;;;;;;12.40;95.20;;;11.28;83.53;100783.63;5032117;28;19929;-78
2023/02/18 06:30:44;;;;;;;;;;;12.40;95.00;;;11.32;83.12;100776.84;5025926;28;19933;-78
2023/02/18 06:33:11;;;;;;;;;;;12.50;95.00;;;11.34;83.10;100776.66;5035577;28;19929;-77
2023/02/18 06:35:38;;;;;;;;;;;12.50;95.00;;;11.24;83.22;100776.25;5032548;28;20385;-78
2023/02/18 06:38:05;;;;;;;;;;;12.50;94.90;;;11.20;83.78;100780.34;5030642;28;19932;-77
2023/02/18 06:40:32;;;;;;;;;;;12.40;95.00;;;11.20;83.70;100775.84;5027448;28;19925;-77
2023/02/18 06:43:00;;;;;;;;;;;12.40;95.00;;;11.21;83.73;100790.81;5028791;28;19925;-78
2023/02/18 06:45:27;;;;;;;;;;;12.40;95.20;;;11.20;83.77;100785.69;5029911;28;19932;-77
2023/02/18 06:47:54;;;;;;;;;;;12.40;95.10;;;11.22;83.86;100787.13;5030192;28;19925;-77
2023/02/18 06:50:21;;;;;;;;;;;12.40;95.30;;;11.25;83.50;100786.72;5030561;28;20316;-78
2023/02/18 06:52:48;;;;;;;;;;;12.40;95.20;;;11.24;83.50;100789.59;5027489;28;19929;-77
2023/02/18 06:55:15;;;;;;;;;;;12.40;95.00;;;11.19;83.30;100800.91;5031896;28;19933;-77
2023/02/18 06:57:42;;;;;;;;;;;12.40;95.10;;;11.16;83.33;100795.97;5029567;28;20401;-76
2023/02/18 07:00:11;;;;;;;;;;;12.30;95.30;;;11.15;83.61;100794.31;5028990;28;19944;-76
2023/02/18 07:02:38;;;;;;;;;;;12.30;95.50;;;11.16;83.24;100793.28;5028043;28;20313;-76
2023/02/18 07:05:05;;;;;;;;;;;12.30;95.20;;;11.16;83.43;100790.63;5030014;28;19925;-77
2023/02/18 07:07:32;;;;;;;;;;;12.30;95.30;;;11.17;83.54;100770.91;5028419;28;19925;-80
2023/02/18 07:09:59;;;;;;;;;;;12.30;95.20;;;11.15;83.59;100780.97;5024733;28;19936;-77
2023/02/18 07:12:26;;;;;;;;;;;12.30;95.30;;;11.15;83.50;100778.31;5026416;28;20337;-76
2023/02/18 07:14:53;;;;;;;;;;;12.30;95.30;;;11.14;83.35;100774.00;5037353;28;19940;-76
2023/02/18 07:17:21;;;;;;;;;;;12.30;95.30;;;11.10;83.66;100770.09;5044521;28;19925;-76
2023/02/18 07:19:48;;;;;;;;;;;12.40;95.40;;;11.12;83.68;100776.03;5041710;28;19948;-77
2023/02/18 07:22:15;;;;;;;;;;;12.30;95.50;;;11.13;83.57;100764.38;5033606;28;19925;-77
2023/02/18 07:24:42;;;;;;;;;;;12.30;95.40;;;11.09;83.62;100773.81;5029812;28;19925;-76
2023/02/18 07:27:09;;;;;;;;;;;12.30;95.30;;;11.12;83.23;100778.72;5025524;28;19925;-77
2023/02/18 07:29:36;;;;;;;;;;;12.30;95.10;;;11.03;83.23;100783.47;5021831;28;20329;-77
2023/02/18 07:32:03;;;;;;;;;;;12.20;95.00;;;11.00;83.57;100791.06;5029836;28;19936;-77
2023/02/18 07:34:32;;;;;;;;;;;12.20;95.20;;;11.00;83.53;100785.72;5049938;28;19933;-77
2023/02/18 07:36:59;;;;;;;;;;;12.20;95.30;;;10.94;84.03;100794.56;5044247;28;19929;-77
2023/02/18 07:39:26;;;;;;;;;;;12.10;95.20;;;10.99;83.18;100800.91;5052408;28;19950;-76
2023/02/18 07:41:53;;;;;;;;;;;12.20;94.90;;;10.93;83.21;100800.91;5021203;28;19929;-78
2023/02/18 07:44:26;;;;;;;;;;;12.10;94.90;;;10.98;83.43;100801.09;5037157;28;19945;-77
2023/02/18 07:46:53;;;;;;;;;;;12.20;95.00;;;11.01;82.78;100803.38;5047261;28;19928;-77
2023/02/18 07:49:20;;;;;;;;;;;12.20;94.60;;;11.00;82.81;100810.56;5043874;22;19925;-76
2023/02/18 07:51:48;;;;;;;;;;;12.20;94.60;;;11.04;82.49;100802.97;5024712;28;19933;-76
2023/02/18 07:54:15;;;;;;;;;;;12.20;94.60;;;10.99;82.50;100800.09;5033311;28;19948;-76
2023/02/18 07:56:42;;;;;;;;;;;12.20;94.40;;;10.97;82.19;100802.13;5032985;28;19925;-77
2023/02/18 07:59:09;;;;;;;;;;;12.10;94.30;;;11.01;82.61;100808.72;5031465;28;19995;-77
2023/02/18 08:01:36;;;;;;;;;;;12.20;94.70;;;11.04;82.24;100802.97;5032939;28;20389;-77
2023/02/18 08:04:04;;;;;;;;;;;12.20;94.50;;;10.97;82.80;100807.47;5037411;28;20419;-76
2023/02/18 08:06:33;;;;;;;;;;;12.20;94.80;;;10.94;82.97;100823.91;5032319;28;19952;-76
2023/02/18 08:09:02;;;;;;;;;;;12.20;94.80;;;10.86;83.58;100827.59;5033103;28;20392;-77
2023/02/18 08:11:29;;;;;;;;;;;12.10;95.00;;;10.92;83.45;100831.28;5031677;28;19928;-76
2023/02/18 08:13:56;;;;;;;;;;;12.10;95.20;;;10.95;83.44;100833.56;5029027;28;20787;-76
2023/02/18 08:16:23;;;;;;;;;;;12.10;95.30;;;10.92;83.33;100825.94;5039558;28;19929;-76
2023/02/18 08:18:51;;;;;;;;;;;12.00;95.10;;;10.93;83.71;100823.09;5032342;28;20297;-77
2023/02/18 08:21:19;;;;;;;;;;;12.20;95.20;;;10.97;83.19;100818.16;5030042;28;19933;-76
2023/02/18 08:23:47;;;;;;;;;;;12.10;95.20;;;10.88;82.99;100830.03;5028710;28;19941;-77
2023/02/18 08:26:15;;;;;;;;;;;12.10;95.00;;;10.78;83.48;100820.63;5031266;28;19944;-76
2023/02/18 08:28:43;;;;;;;;;;;12.00;95.00;;;10.71;84.05;100830.44;5032177;28;20312;-77
2023/02/18 08:31:18;;;;;;;;;;;11.90;95.30;;;10.72;84.21;100826.75;5040759;28;19936;-76
2023/02/18 08:33:45;;;;;;;;;;;12.10;95.60;;;10.75;84.42;100826.34;5044536;28;20415;-76
2023/02/18 08:36:12;;;;;;;;;;;11.90;95.80;;;10.85;84.71;100822.47;5052192;28;20017;-76
2023/02/18 08:38:39;;;;;;;;;;;12.00;95.90;;;10.93;84.25;100824.91;5052023;28;20345;-76
2023/02/18 08:41:07;;;;;;;;;;;12.10;96.00;;;10.93;84.36;100823.09;5031539;28;19936;-77
2023/02/18 08:43:36;;;;;;;;;;;12.10;95.70;;;10.92;83.74;100820.59;5032133;28;19936;-76
2023/02/18 08:46:03;;;;;;;;;;;12.10;95.60;;;10.91;83.43;100834.97;5031789;28;20615;-76
2023/02/18 08:48:30;;;;;;;;;;;12.00;95.40;;;10.90;83.06;100828.81;5038666;28;19929;-78
2023/02/18 08:50:57;;;;;;;;;;;12.00;95.10;;;10.88;82.29;100828.19;5024911;28;19925;-77
2023/02/18 08:53:24;;;;;;;;;;;12.00;94.80;;;10.86;81.60;100824.09;5032340;28;19936;-78
2023/02/18 08:55:51;;;;;;;;;;;11.90;94.40;;;10.84;81.70;100818.97;5030001;28;19936;-77
2023/02/18 08:58:18;;;;;;;;;;;12.00;94.40;;;10.81;81.59;100835.38;5031334;28;19947;-79
2023/02/18 09:00:47;;;;;;;;;;;12.00;94.30;;;10.72;81.62;100821.41;5031507;28;19925;-77
2023/02/18 09:03:14;;;;;;;;;;;11.90;94.20;;;10.75;81.37;100829.00;5038509;28;19925;-77
2023/02/18 09:05:42;;;;;;;;;;;11.90;94.00;;;10.76;80.33;100811.97;5039611;28;19937;-75
2023/02/18 09:08:09;;;;;;;;;;;11.90;93.20;;;10.69;80.30;100821.84;5037481;28;20464;-78
2023/02/18 09:10:38;;;;;;;;;;;11.90;93.20;;;10.70;80.50;100831.47;5031183;28;19929;-78
2023/02/18 09:13:05;;;;;;;;;;;11.90;93.40;;;10.75;80.26;100826.34;5029289;28;19929;-78
2023/02/18 09:15:32;;;;;;;;;;;11.90;93.20;;;10.72;78.75;100818.75;5032121;28;19929;-79
2023/02/18 09:18:00;;;;;;;;;;;11.90;92.30;;;10.74;79.19;100816.72;5030446;28;19927;-78
2023/02/18 09:20:27;;;;;;;;;;;11.90;92.40;;;10.72;79.01;100813.41;5033934;28;20024;-78
2023/02/18 09:22:54;;;;;;;;;;;11.80;92.40;;;10.67;79.01;100818.53;5045670;28;19925;-81
2023/02/18 09:25:21;;;;;;;;;;;11.80;92.30;;;10.65;78.86;100825.94;5031668;28;19925;-79
2023/02/18 09:27:48;;;;;;;;;;;11.80;92.20;;;10.61;79.03;100815.88;5029920;28;19925;-78
2023/02/18 09:30:15;;;;;;;;;;;11.80;92.20;;;10.64;79.12;100818.97;5024550;28;19937;-78
2023/02/18 09:32:42;;;;;;;;;;;11.80;92.40;;;10.69;78.83;100816.50;5030308;28;19929;-79
2023/02/18 09:35:10;;;;;;;;;;;11.80;92.20;;;10.71;78.09;100818.94;5048489;28;19924;-79
2023/02/18 09:37:38;;;;;;;;;;;11.80;92.00;;;10.73;78.45;100822.22;5041326;28;19933;-77
2023/02/18 09:40:07;;;;;;;;;;;11.90;92.20;;;10.76;78.51;100814.66;5031633;28;19929;-79
2023/02/18 09:42:34;;;;;;;;;;;11.90;92.20;;;10.74;78.22;100816.72;5030623;28;19925;-77
2023/02/18 09:45:03;;;;;;;;;;;11.90;91.80;;;10.73;77.65;100809.72;5039758;28;19932;-78
2023/02/18 09:47:35;;;;;;;;;;;11.90;91.60;;;10.66;77.75;100811.56;5042896;28;19933;-82
2023/02/18 09:50:07;;;;;;;;;;;11.80;91.60;;;10.67;78.31;100807.03;5029089;28;20293;-80
2023/02/18 09:52:38;;;;;;;;;;;11.90;91.80;;;10.72;77.85;100813.41;5020958;28;20468;-79
2023/02/18 09:55:18;;;;;;;;;;;11.90;91.80;;;10.68;78.16;100809.50;5021812;28;19939;-79
2023/02/18 09:57:46;;;;;;;;;;;11.80;91.60;;;10.65;77.73;100809.09;5033012;28;19975;-79
2023/02/18 10:00:17;;;;;;;;;;;11.80;91.30;;;10.62;77.62;100815.66;5030394;28;20336;-79
2023/02/18 10:02:53;;;;;;;;;;;11.80;91.20;;;10.63;77.85;100816.47;5030460;28;19947;-90
2023/02/18 10:05:20;;;;;;;;;;;11.90;91.60;;;10.67;77.79;100807.88;5028587;28;19936;-78
2023/02/18 10:07:51;;;;;;;;;;;11.80;91.40;;;10.70;77.78;100817.31;5024295;28;19929;-78
2023/02/18 10:10:22;;;;;;;;;;;11.80;91.50;;;10.65;78.28;100815.25;5038352;28;20382;-78
2023/02/18 10:12:50;;;;;;;;;;;11.90;91.70;;;10.68;78.34;100782.81;5013644;28;19926;-78
2023/02/18 10:15:21;;;;;;;;;;;11.90;91.80;;;10.72;77.96;100807.25;5013664;28;19933;-77
2023/02/18 10:17:48;;;;;;;;;;;11.90;91.60;;;10.76;77.63;100801.31;5028087;28;19979;-79
2023/02/18 10:20:16;;;;;;;;;;;12.00;91.40;;;10.72;77.63;100807.25;5012686;28;20621;-85
2023/02/18 10:22:44;;;;;;;;;;;11.90;91.40;;;10.69;77.88;100805.84;5030423;28;19925;-78
2023/02/18 10:25:18;;;;;;;;;;;11.90;91.60;;;10.63;77.69;100809.28;5023593;28;20024;-79
2023/02/18 10:27:48;;;;;;;;;;;11.80;91.10;;;10.63;78.55;100814.63;5029918;28;20389;-78
2023/02/18 10:30:22;;;;;;;;;;;11.80;91.90;;;10.64;79.21;100818.09;5050759;28;20291;-78
2023/02/18 10:32:51;;;;;;;;;;;11.80;92.20;;;10.64;78.96;100813.63;5038660;28;20385;-77
2023/02/18 10:35:23;;;;;;;;;;;11.90;92.10;;;10.62;78.91;100823.66;5027780;28;19929;-77
2023/02/18 10:38:02;;;;;;;;;;;11.80;91.80;;;10.65;79.03;100823.25;5029501;28;19925;-77
2023/02/18 10:40:35;;;;;;;;;;;11.80;92.20;;;10.70;78.87;100823.47;5029526;28;19932;-77
2023/02/18 10:43:11;;;;;;;;;;;11.80;92.00;;;10.58;78.88;100830.41;5031720;28;19940;-77
2023/02/18 10:45:44;;;;;;;;;;;11.80;92.00;;;10.61;79.56;100835.34;5010540;28;19936;-77
2023/02/18 10:48:27;;;;;;;;;;;11.80;92.40;;;10.57;80.08;100847.44;5023991;28;19929;-76
2023/02/18 10:50:55;;;;;;;;;;;11.80;92.60;;;10.58;80.56;100839.22;5030402;28;19932;-77
2023/02/18 10:53:30;;;;;;;;;;;11.80;92.80;;;10.62;80.25;100837.00;5020676;28;19930;-77
2023/02/18 10:55:59;;;;;;;;;;;11.80;92.80;;;10.61;80.25;100840.69;5029564;28;19929;-80
2023/02/18 10:58:32;;;;;;;;;;;11.80;92.80;;;10.57;80.48;100848.25;5032000;28;19945;-77
2023/02/18 11:01:03;;;;;;;;;;;11.80;93.00;;;10.59;80.45;100850.75;5035071;28;19947;-79
2023/02/18 11:03:40;;;;;;;;;;;11.80;93.10;;;10.64;80.34;100855.44;5030091;28;19925;-76
2023/02/18 11:06:16;;;;;;;;;;;11.80;93.20;;;10.69;80.30;100855.69;5030051;28;20615;-77
2023/02/18 11:08:45;;;;;;;;;;;11.80;93.30;;;10.75;80.16;100854.88;5029083;28;19929;-77
2023/02/18 11:11:17;;;;;;;;;;;11.90;93.30;;;10.69;80.14;100853.84;5029497;28;20009;-76
2023/02/18 11:13:44;;;;;;;;;;;11.90;93.30;;;10.66;80.63;100856.09;5029777;28;19929;-76
2023/02/18 11:16:12;;;;;;;;;;;11.80;93.40;;;10.58;80.61;100857.09;5029067;28;19936;-77
2023/02/18 11:18:40;;;;;;;;;;;11.80;93.30;;;10.62;80.89;100869.00;5029824;28;19935;-77
2023/02/18 11:21:21;;;;;;;;;;;11.80;93.50;;;10.60;81.07;100862.25;5029908;28;19936;-78
2023/02/18 11:23:50;;;;;;;;;;;11.80;93.60;;;10.58;81.51;100860.56;5034900;28;19929;-79